createdAt,value
2023-02-25T00:01:33.559Z,10.23
2023-02-25T00:04:41.146Z,11.93
2023-02-25T00:07:47.362Z,11.43
2023-02-25T00:10:59.133Z,12.67
2023-02-25T00:14:05.298Z,9.60
2023-02-25T00:17:13.299Z,9.93
2023-02-25T00:20:22.566Z,8.27
2023-02-25T00:23:29.092Z,10.63
2023-02-25T00:26:35.402Z,12.77
2023-02-25T00:29:42.006Z,11.40
2023-02-25T00:32:50.818Z,14.77
2023-02-25T00:35:57.025Z,14.90
2023-02-25T00:39:03.585Z,13.00
2023-02-25T00:42:10.273Z,9.97
2023-02-25T00:45:16.297Z,8.30
2023-02-25T00:48:23.789Z,7.37
2023-02-25T00:51:32.939Z,10.70
2023-02-25T00:54:39.727Z,9.03
2023-02-25T00:57:45.705Z,8.03
2023-02-25T01:00:52.250Z,10.70
2023-02-25T01:04:00.680Z,10.97
2023-02-25T01:07:07.953Z,15.73
2023-02-25T01:10:14.341Z,12.30
2023-02-25T01:13:20.990Z,9.87
2023-02-25T01:16:30.252Z,10.40
2023-02-25T01:19:37.952Z,9.93
2023-02-25T01:22:44.255Z,9.40
2023-02-25T01:25:50.932Z,8.23
2023-02-25T01:28:57.626Z,8.97
2023-02-25T01:32:05.551Z,10.03
2023-02-25T01:35:13.551Z,12.80
2023-02-25T01:38:20.163Z,11.53
2023-02-25T01:41:26.871Z,11.93
2023-02-25T01:44:35.301Z,9.53
2023-02-25T01:47:42.090Z,8.33
2023-02-25T01:50:53.413Z,7.97
2023-02-25T01:54:02.940Z,21.23
2023-02-25T01:57:11.776Z,12.50
2023-02-25T02:00:19.125Z,10.47
2023-02-25T02:03:27.980Z,8.13
2023-02-25T02:06:38.204Z,7.90
2023-02-25T02:09:56.064Z,8.07
2023-02-25T02:13:02.456Z,8.43
2023-02-25T02:16:24.003Z,8.90
2023-02-25T02:19:40.607Z,11.50
2023-02-25T02:23:22.223Z,10.80
2023-02-25T02:26:52.082Z,9.03
2023-02-25T02:30:31.879Z,7.03
2023-02-25T02:33:50.788Z,6.00
2023-02-25T02:37:09.080Z,6.93
2023-02-25T02:40:24.227Z,6.90
2023-02-25T02:43:40.626Z,6.63
2023-02-25T02:46:50.188Z,6.20
2023-02-25T02:50:04.030Z,8.40
2023-02-25T02:53:14.597Z,7.77
2023-02-25T02:56:24.678Z,8.33
2023-02-25T02:59:36.901Z,7.23
2023-02-25T03:02:46.399Z,6.70
2023-02-25T03:05:55.059Z,6.10
2023-02-25T03:09:06.030Z,6.60
2023-02-25T03:12:12.485Z,6.77
2023-02-25T03:15:18.776Z,5.57
2023-02-25T03:18:31.985Z,6.20
2023-02-25T03:21:43.076Z,10.77
2023-02-25T03:24:54.943Z,13.47
2023-02-25T03:28:05.563Z,23.33
2023-02-25T03:31:15.935Z,23.60
2023-02-25T03:34:27.048Z,24.13
2023-02-25T03:37:38.766Z,21.63
2023-02-25T03:40:45.303Z,18.70
2023-02-25T03:43:55.512Z,14.57
2023-02-25T03:47:04.517Z,18.80
2023-02-25T03:50:13.884Z,21.80
2023-02-25T03:53:21.987Z,15.17
2023-02-25T03:56:28.523Z,17.80
2023-02-25T03:59:34.622Z,16.67
2023-02-25T04:02:40.902Z,25.80
2023-02-25T04:05:46.837Z,24.13
2023-02-25T04:08:54.472Z,17.67
2023-02-25T04:12:00.705Z,14.27
2023-02-25T04:15:08.138Z,24.40
2023-02-25T04:18:14.577Z,15.97
2023-02-25T04:21:29.961Z,13.20
2023-02-25T04:24:38.041Z,12.50
2023-02-25T04:27:44.463Z,13.47
2023-02-25T04:30:50.844Z,19.43
2023-02-25T04:33:58.324Z,17.50
2023-02-25T04:37:05.169Z,19.50
2023-02-25T04:40:17.049Z,17.10
2023-02-25T04:43:23.264Z,16.53
2023-02-25T04:46:29.436Z,13.53
2023-02-25T04:49:45.249Z,12.13
2023-02-25T04:52:51.736Z,12.80
2023-02-25T04:55:59.037Z,15.30
2023-02-25T04:59:05.601Z,17.37
2023-02-25T05:02:11.968Z,20.13
2023-02-25T05:05:18.962Z,19.97
2023-02-25T05:08:25.954Z,17.77
2023-02-25T05:11:33.496Z,10.90
2023-02-25T05:14:39.783Z,29.53
2023-02-25T05:17:45.792Z,36.90
2023-02-25T05:20:52.377Z,13.73
2023-02-25T05:23:58.526Z,17.03
2023-02-25T05:27:09.482Z,18.00
2023-02-25T05:30:16.714Z,15.87
2023-02-25T05:33:23.575Z,16.43
2023-02-25T05:36:30.544Z,19.00
2023-02-25T05:39:36.864Z,19.07
2023-02-25T05:42:44.149Z,29.17
2023-02-25T05:45:54.654Z,48.37
2023-02-25T05:49:00.774Z,76.73
2023-02-25T05:52:07.006Z,51.40
2023-02-25T05:55:12.959Z,26.20
2023-02-25T05:58:20.408Z,23.17
2023-02-25T06:01:29.571Z,27.20
2023-02-25T06:04:35.636Z,28.37
2023-02-25T06:07:41.593Z,33.43
2023-02-25T06:10:47.841Z,36.77
2023-02-25T06:13:56.329Z,38.00
2023-02-25T06:17:03.417Z,54.83
2023-02-25T06:20:10.683Z,57.53
2023-02-25T06:23:17.184Z,46.03
2023-02-25T06:26:24.361Z,39.07
2023-02-25T06:29:31.957Z,46.77
2023-02-25T06:32:38.653Z,49.90
2023-02-25T06:35:45.119Z,54.13
2023-02-25T06:38:51.510Z,138.57
2023-02-25T06:41:57.487Z,47.63
2023-02-25T06:45:05.532Z,41.97
2023-02-25T06:48:12.175Z,46.17
2023-02-25T06:51:18.189Z,67.53
2023-02-25T06:54:24.685Z,47.03
2023-02-25T06:57:31.175Z,43.23
2023-02-25T07:00:43.217Z,53.73
2023-02-25T07:03:49.696Z,49.47
2023-02-25T07:06:56.672Z,33.80
2023-02-25T07:10:03.208Z,46.53
2023-02-25T07:13:10.656Z,31.10
2023-02-25T07:16:18.629Z,29.97
2023-02-25T07:19:25.108Z,29.93
2023-02-25T07:22:31.863Z,35.47
2023-02-25T07:25:39.974Z,38.57
2023-02-25T07:28:48.362Z,29.33
2023-02-25T07:31:56.659Z,34.17
2023-02-25T07:35:02.678Z,27.83
2023-02-25T07:38:12.940Z,29.73
2023-02-25T07:41:20.974Z,25.70
2023-02-25T07:44:27.216Z,23.77
2023-02-25T07:47:35.024Z,25.07
2023-02-25T07:50:41.339Z,22.90
2023-02-25T07:53:48.764Z,26.27
2023-02-25T07:56:55.108Z,22.53
2023-02-25T08:00:01.321Z,23.00
2023-02-25T08:03:09.114Z,24.10
2023-02-25T08:06:15.816Z,29.53
2023-02-25T08:09:21.903Z,26.43
2023-02-25T08:12:27.997Z,20.93
2023-02-25T08:15:34.447Z,18.93
2023-02-25T08:18:42.909Z,13.77
2023-02-25T08:21:48.885Z,16.87
2023-02-25T08:24:54.944Z,17.10
2023-02-25T08:28:02.514Z,15.33
2023-02-25T08:31:12.043Z,12.97
2023-02-25T08:34:19.836Z,12.00
2023-02-25T08:37:26.979Z,13.03
2023-02-25T08:40:33.555Z,15.30
2023-02-25T08:43:40.997Z,26.23
2023-02-25T08:46:47.977Z,36.33
2023-02-25T08:49:55.367Z,24.27
2023-02-25T08:53:02.122Z,18.30
2023-02-25T08:56:09.000Z,20.50
2023-02-25T08:59:16.822Z,20.47
2023-02-25T09:02:24.343Z,16.93
2023-02-25T09:05:31.635Z,16.10
2023-02-25T09:08:37.869Z,15.53
2023-02-25T09:11:44.908Z,11.67
2023-02-25T09:14:51.479Z,12.87
2023-02-25T09:17:57.758Z,9.83
2023-02-25T09:21:05.709Z,9.87
2023-02-25T09:24:12.203Z,9.10
2023-02-25T09:27:18.600Z,8.70
2023-02-25T09:30:24.780Z,9.90
2023-02-25T09:33:32.929Z,9.40
2023-02-25T09:36:40.681Z,9.13
2023-02-25T09:39:47.170Z,8.70
2023-02-25T09:43:06.146Z,11.30
2023-02-25T09:46:18.903Z,10.70
2023-02-25T09:49:29.666Z,9.30
2023-02-25T09:52:41.183Z,10.33
2023-02-25T09:55:50.896Z,9.07
2023-02-25T09:58:59.904Z,10.80
2023-02-25T10:02:21.804Z,10.07
2023-02-25T10:05:33.833Z,9.23
2023-02-25T10:08:48.967Z,9.20
2023-02-25T10:12:05.220Z,8.17
2023-02-25T10:15:39.983Z,9.40
2023-02-25T10:19:00.193Z,9.77
2023-02-25T10:22:20.915Z,8.83
2023-02-25T10:25:30.359Z,8.80
2023-02-25T10:28:37.502Z,8.93
2023-02-25T10:31:45.883Z,10.87
2023-02-25T10:34:54.005Z,8.93
2023-02-25T10:37:59.918Z,10.90
2023-02-25T10:41:07.762Z,25.67
2023-02-25T10:44:14.527Z,12.70
2023-02-25T10:47:30.433Z,8.40
2023-02-25T10:50:45.444Z,8.30
2023-02-25T10:54:08.532Z,10.37
2023-02-25T10:57:17.974Z,9.30
2023-02-25T11:00:29.985Z,7.77
2023-02-25T11:03:45.498Z,8.10
2023-02-25T11:06:52.012Z,7.60
2023-02-25T11:10:16.343Z,7.73
2023-02-25T11:13:31.166Z,9.37
2023-02-25T11:16:40.048Z,8.73
2023-02-25T11:19:49.957Z,7.07
2023-02-25T11:22:57.987Z,9.17
2023-02-25T11:26:06.766Z,9.87
2023-02-25T11:29:19.087Z,19.77
2023-02-25T11:32:25.645Z,8.90
2023-02-25T11:35:37.453Z,7.47
2023-02-25T11:38:44.292Z,9.90
2023-02-25T11:41:51.952Z,8.97
2023-02-25T11:45:03.430Z,6.93
2023-02-25T11:48:19.726Z,6.80
2023-02-25T11:51:31.686Z,6.87
2023-02-25T11:54:48.047Z,8.90
2023-02-25T11:58:06.349Z,7.60
2023-02-25T12:01:22.346Z,6.30
2023-02-25T12:04:58.509Z,6.53
2023-02-25T12:08:52.223Z,6.83
2023-02-25T12:12:17.721Z,6.87
2023-02-25T12:15:33.582Z,7.00
2023-02-25T12:19:18.246Z,5.70
2023-02-25T12:23:00.031Z,6.47
2023-02-25T12:26:11.345Z,5.60
2023-02-25T12:29:42.413Z,6.40
2023-02-25T12:32:57.332Z,6.90
2023-02-25T12:36:23.405Z,5.73
2023-02-25T12:39:57.353Z,4.20
2023-02-25T12:43:17.200Z,4.47
2023-02-25T12:46:33.827Z,5.80
2023-02-25T12:50:05.865Z,5.33
2023-02-25T12:53:31.377Z,5.30
2023-02-25T12:57:05.305Z,4.87
2023-02-25T13:00:47.901Z,4.83
2023-02-25T13:04:18.181Z,6.40
2023-02-25T13:08:08.638Z,6.00
2023-02-25T13:11:26.389Z,7.87
2023-02-25T13:14:48.097Z,8.67
2023-02-25T13:18:10.436Z,8.67
2023-02-25T13:21:34.124Z,4.50
2023-02-25T13:24:49.404Z,5.83
2023-02-25T13:28:20.526Z,6.47
2023-02-25T13:31:37.268Z,5.17
2023-02-25T13:34:51.358Z,5.07
2023-02-25T13:38:10.028Z,5.67
2023-02-25T13:41:32.948Z,4.90
2023-02-25T13:45:13.300Z,5.63
2023-02-25T13:48:40.246Z,11.73
2023-02-25T13:52:22.650Z,12.63
2023-02-25T13:55:44.482Z,6.83
2023-02-25T13:59:03.652Z,6.83
2023-02-25T14:02:36.107Z,6.07
2023-02-25T14:06:06.143Z,6.60
2023-02-25T14:09:26.406Z,7.17
2023-02-25T14:12:45.682Z,6.50
2023-02-25T14:16:02.356Z,8.67
2023-02-25T14:19:32.608Z,9.57
2023-02-25T14:22:44.321Z,7.13
2023-02-25T14:26:07.765Z,6.67
2023-02-25T14:29:24.970Z,7.67
2023-02-25T14:32:45.598Z,5.97
2023-02-25T14:36:20.217Z,8.87
2023-02-25T14:39:45.644Z,8.03
2023-02-25T14:43:06.266Z,9.40
2023-02-25T14:46:26.919Z,10.07
2023-02-25T14:49:38.963Z,9.60
2023-02-25T14:53:12.782Z,7.13
2023-02-25T14:56:47.736Z,5.90
2023-02-25T15:00:12.936Z,21.87
2023-02-25T15:03:44.922Z,19.70
2023-02-25T15:07:01.642Z,13.43
2023-02-25T15:10:28.437Z,9.87
2023-02-25T15:14:03.097Z,13.63
2023-02-25T15:17:44.201Z,11.43
2023-02-25T15:20:50.803Z,10.07
2023-02-25T15:23:58.057Z,11.77
2023-02-25T15:27:49.349Z,14.63
2023-02-25T15:31:34.397Z,9.33
2023-02-25T15:34:55.802Z,11.20
2023-02-25T15:38:09.646Z,13.30
2023-02-25T15:41:44.900Z,13.63
2023-02-25T15:44:53.002Z,10.20
2023-02-25T15:48:29.532Z,8.03
2023-02-25T15:51:44.103Z,6.20
2023-02-25T15:54:54.032Z,6.67
2023-02-25T15:58:00.397Z,9.33
2023-02-25T16:01:28.250Z,7.40
2023-02-25T16:04:47.391Z,10.23
2023-02-25T16:08:07.135Z,7.03
2023-02-25T16:11:24.271Z,7.20
2023-02-25T16:14:33.528Z,10.20
2023-02-25T16:17:41.631Z,7.80
2023-02-25T16:20:50.981Z,7.83
2023-02-25T16:24:00.708Z,8.07
2023-02-25T16:27:13.938Z,8.70
2023-02-25T16:30:27.130Z,8.63
2023-02-25T16:33:44.961Z,10.33
2023-02-25T16:37:03.023Z,9.53
2023-02-25T16:40:16.405Z,7.03
2023-02-25T16:43:27.281Z,8.13
2023-02-25T16:46:35.711Z,10.60
2023-02-25T16:49:47.244Z,8.00
2023-02-25T16:52:55.151Z,8.73
2023-02-25T16:56:01.879Z,9.53
2023-02-25T16:59:18.276Z,10.93
2023-02-25T17:02:26.453Z,8.87
2023-02-25T17:05:35.845Z,9.03
2023-02-25T17:08:46.317Z,7.67
2023-02-25T17:11:56.397Z,10.40
2023-02-25T17:15:06.205Z,11.40
2023-02-25T17:18:20.146Z,9.23
2023-02-25T17:21:30.342Z,9.23
2023-02-25T17:24:37.274Z,6.00
2023-02-25T17:27:44.162Z,11.37
2023-02-25T17:30:51.357Z,11.27
2023-02-25T17:34:00.973Z,8.67
2023-02-25T17:37:10.393Z,8.13
2023-02-25T17:40:17.102Z,11.60
2023-02-25T17:43:25.341Z,11.77
2023-02-25T17:46:36.399Z,9.00
2023-02-25T17:49:42.574Z,8.37
2023-02-25T17:52:51.707Z,8.93
2023-02-25T17:55:58.204Z,13.20
2023-02-25T17:59:07.220Z,13.57
2023-02-25T18:02:36.259Z,12.43
2023-02-25T18:05:51.357Z,18.63
2023-02-25T18:09:02.670Z,10.03
2023-02-25T18:12:21.405Z,14.43
2023-02-25T18:15:31.063Z,9.10
2023-02-25T18:18:37.839Z,7.03
2023-02-25T18:21:44.552Z,12.57
2023-02-25T18:24:55.652Z,8.97
2023-02-25T18:28:02.676Z,15.40
2023-02-25T18:31:09.955Z,13.50
2023-02-25T18:34:16.116Z,13.87
2023-02-25T18:37:22.438Z,10.27
2023-02-25T18:40:31.740Z,8.83
2023-02-25T18:43:41.966Z,8.77
2023-02-25T18:46:49.811Z,8.10
2023-02-25T18:49:55.785Z,8.97
2023-02-25T18:53:02.400Z,16.03
2023-02-25T18:56:13.088Z,9.10
2023-02-25T18:59:19.385Z,14.90
2023-02-25T19:02:29.975Z,13.60
2023-02-25T19:05:36.894Z,9.83
2023-02-25T19:08:42.848Z,9.97
2023-02-25T19:11:51.967Z,10.67
2023-02-25T19:15:00.524Z,7.73
2023-02-25T19:18:06.982Z,8.33
2023-02-25T19:21:16.559Z,8.20
2023-02-25T19:24:22.769Z,6.53
2023-02-25T19:27:31.446Z,6.50
2023-02-25T19:30:40.988Z,5.97
2023-02-25T19:33:47.369Z,7.30
2023-02-25T19:36:53.520Z,7.60
2023-02-25T19:39:59.732Z,11.37
2023-02-25T19:43:07.810Z,7.77
2023-02-25T19:46:17.389Z,12.23
2023-02-25T19:49:23.662Z,25.60
2023-02-25T19:52:30.397Z,10.80
2023-02-25T19:55:37.136Z,9.63
2023-02-25T19:58:44.737Z,6.53
2023-02-25T20:01:50.912Z,9.20
2023-02-25T20:04:57.352Z,10.50
2023-02-25T20:08:03.847Z,13.40
2023-02-25T20:11:10.931Z,7.83
2023-02-25T20:14:18.841Z,7.67
2023-02-25T20:17:26.051Z,7.60
2023-02-25T20:20:32.287Z,12.53
2023-02-25T20:23:39.833Z,10.13
2023-02-25T20:26:46.524Z,8.23
2023-02-25T20:29:55.442Z,6.73
2023-02-25T20:33:02.843Z,7.50
2023-02-25T20:36:20.820Z,9.40
2023-02-25T20:39:44.163Z,10.10
2023-02-25T20:42:50.245Z,10.63
2023-02-25T20:45:58.199Z,12.73
2023-02-25T20:49:06.066Z,8.20
2023-02-25T20:52:13.713Z,6.47
2023-02-25T20:55:19.731Z,6.40
2023-02-25T20:58:25.878Z,6.87
2023-02-25T21:01:33.848Z,7.40
2023-02-25T21:04:40.027Z,9.03
2023-02-25T21:07:46.433Z,7.23
2023-02-25T21:10:52.702Z,8.83
2023-02-25T21:13:58.686Z,9.93
2023-02-25T21:17:09.686Z,6.87
2023-02-25T21:20:16.217Z,9.70
2023-02-25T21:23:24.657Z,8.13
2023-02-25T21:26:30.659Z,8.20
2023-02-25T21:29:37.019Z,7.40
2023-02-25T21:32:44.794Z,5.03
2023-02-25T21:35:53.444Z,6.23
2023-02-25T21:38:59.754Z,6.10
2023-02-25T21:42:06.069Z,5.23
2023-02-25T21:45:13.195Z,6.17
2023-02-25T21:48:20.908Z,5.23
2023-02-25T21:51:30.017Z,5.63
2023-02-25T21:54:36.486Z,5.77
2023-02-25T21:57:42.522Z,6.03
2023-02-25T22:00:48.675Z,5.80
2023-02-25T22:03:56.668Z,5.00
2023-02-25T22:07:02.912Z,5.80
2023-02-25T22:10:10.854Z,5.60
2023-02-25T22:13:17.734Z,5.57
2023-02-25T22:16:24.909Z,4.17
2023-02-25T22:19:32.945Z,5.37
2023-02-25T22:22:39.632Z,4.73
2023-02-25T22:25:45.691Z,5.63
2023-02-25T22:28:55.934Z,6.13
2023-02-25T22:32:02.497Z,5.67
2023-02-25T22:35:10.671Z,5.60
2023-02-25T22:38:16.896Z,5.77
2023-02-25T22:41:25.317Z,5.03
2023-02-25T22:44:31.605Z,2.93
2023-02-25T22:47:38.028Z,10.93
2023-02-25T22:50:49.813Z,5.70
2023-02-25T22:53:56.524Z,5.83
2023-02-25T22:57:02.897Z,8.40
2023-02-25T23:00:17.029Z,5.17
2023-02-25T23:03:23.934Z,5.47
2023-02-25T23:06:43.445Z,5.93
2023-02-25T23:09:50.624Z,4.90
2023-02-25T23:12:58.880Z,4.00
2023-02-25T23:16:06.295Z,6.80
2023-02-25T23:19:16.056Z,5.03
2023-02-25T23:22:26.869Z,5.27
2023-02-25T23:25:33.406Z,5.03
2023-02-25T23:28:39.574Z,4.80
2023-02-25T23:31:48.134Z,4.63
2023-02-25T23:34:54.459Z,3.37
2023-02-25T23:38:02.661Z,4.40
2023-02-25T23:41:09.476Z,4.33
2023-02-25T23:44:15.800Z,4.97
2023-02-25T23:47:22.449Z,4.30
2023-02-25T23:50:29.009Z,6.03
2023-02-25T23:53:37.134Z,4.20
2023-02-25T23:56:43.172Z,3.90
2023-02-25T23:59:49.458Z,3.83
